sensor_id;sensor_type;location;lat;lon;timestamp;P1;P2;P0
76045;PMS7003;64741;41.730;44.788;2024-03-22T00:00:19;4;3.6;2.8
76045;PMS7003;64741;41.730;44.788;2024-03-22T00:05:23;4.6;3;2.6
76045;PMS7003;64741;41.730;44.788;2024-03-22T00:10:23;3.8;3.4;2.8
76045;PMS7003;64741;41.730;44.788;2024-03-22T00:14:59;3.8;3.4;2.8
76045;PMS7003;64741;41.730;44.788;2024-03-22T00:20:23;3.6;3;2.2
76045;PMS7003;64741;41.730;44.788;2024-03-22T00:24:45;3.6;3;2.2
76045;PMS7003;64741;41.730;44.788;2024-03-22T00:30:21;4.2;3.4;3
76045;PMS7003;64741;41.730;44.788;2024-03-22T00:35:15;3.4;3;2.4
76045;PMS7003;64741;41.730;44.788;2024-03-22T00:40:21;3.6;3;1.8
76045;PMS7003;64741;41.730;44.788;2024-03-22T00:45:19;3.4;2.6;2.4
76045;PMS7003;64741;41.730;44.788;2024-03-22T00:50:23;3.6;3;2.4
76045;PMS7003;64741;41.730;44.788;2024-03-22T00:55:19;3.8;3;2
76045;PMS7003;64741;41.730;44.788;2024-03-22T01:00:23;3.6;2.8;2.4
76045;PMS7003;64741;41.730;44.788;2024-03-22T01:05:09;2.8;2.4;2.4
76045;PMS7003;64741;41.730;44.788;2024-03-22T01:10:21;3.4;2.6;2.2
76045;PMS7003;64741;41.730;44.788;2024-03-22T01:15:21;4.4;3.2;2.2
76045;PMS7003;64741;41.730;44.788;2024-03-22T01:20:15;3.4;2.8;1.6
76045;PMS7003;64741;41.730;44.788;2024-03-22T01:25:23;3.2;2.6;1.8
76045;PMS7003;64741;41.730;44.788;2024-03-22T01:30:23;2;1.8;1.4
76045;PMS7003;64741;41.730;44.788;2024-03-22T01:35:19;3;2.2;2
76045;PMS7003;64741;41.730;44.788;2024-03-22T01:40:23;3.4;2.2;1.8
76045;PMS7003;64741;41.730;44.788;2024-03-22T01:45:23;3.4;2.4;2
76045;PMS7003;64741;41.730;44.788;2024-03-22T01:50:19;2.4;2.4;1.8
76045;PMS7003;64741;41.730;44.788;2024-03-22T01:55:23;2.6;2.2;1.2
76045;PMS7003;64741;41.730;44.788;2024-03-22T01:59:51;2.6;2.2;1.2
76045;PMS7003;64741;41.730;44.788;2024-03-22T02:04:50;3;2.2;1.6
76045;PMS7003;64741;41.730;44.788;2024-03-22T02:10:07;2.2;2.2;1.4
76045;PMS7003;64741;41.730;44.788;2024-03-22T02:15:15;2.4;1.6;1.4
76045;PMS7003;64741;41.730;44.788;2024-03-22T02:20:13;2.6;2.6;1.6
76045;PMS7003;64741;41.730;44.788;2024-03-22T02:25:15;2.6;2.2;1.6
76045;PMS7003;64741;41.730;44.788;2024-03-22T02:30:15;1.8;1.8;1.4
76045;PMS7003;64741;41.730;44.788;2024-03-22T02:35:23;2.2;1.8;1.2
76045;PMS7003;64741;41.730;44.788;2024-03-22T02:40:19;3;2.2;1.6
76045;PMS7003;64741;41.730;44.788;2024-03-22T02:45:19;1.8;1.8;1.4
76045;PMS7003;64741;41.730;44.788;2024-03-22T02:50:21;1.8;1.4;1.4
76045;PMS7003;64741;41.730;44.788;2024-03-22T02:55:15;2.4;1.8;1.4
76045;PMS7003;64741;41.730;44.788;2024-03-22T03:00:21;2.6;1.8;1.2
76045;PMS7003;64741;41.730;44.788;2024-03-22T03:05:15;2.2;1.8;1.6
76045;PMS7003;64741;41.730;44.788;2024-03-22T03:10:21;2.6;2.6;2
76045;PMS7003;64741;41.730;44.788;2024-03-22T03:15:19;2;1.8;1.4
76045;PMS7003;64741;41.730;44.788;2024-03-22T03:20:25;2.4;2;1.2
76045;PMS7003;64741;41.730;44.788;2024-03-22T03:25:21;2.4;1.8;1.4
76045;PMS7003;64741;41.730;44.788;2024-03-22T03:30:21;1.8;1.4;1
76045;PMS7003;64741;41.730;44.788;2024-03-22T03:35:19;3;1.6;1.2
76045;PMS7003;64741;41.730;44.788;2024-03-22T03:40:21;1.6;1;0.6
76045;PMS7003;64741;41.730;44.788;2024-03-22T03:45:21;2.5;2.3;1.3
76045;PMS7003;64741;41.730;44.788;2024-03-22T03:50:03;2.5;2.3;1.3
76045;PMS7003;64741;41.730;44.788;2024-03-22T03:55:13;1.4;1.4;1
76045;PMS7003;64741;41.730;44.788;2024-03-22T04:00:15;1.8;1.8;1.8
76045;PMS7003;64741;41.730;44.788;2024-03-22T04:05:19;1.8;1.6;1.4
76045;PMS7003;64741;41.730;44.788;2024-03-22T04:10:23;1.8;1.6;1.2
76045;PMS7003;64741;41.730;44.788;2024-03-22T04:15:23;1.2;1.2;1
76045;PMS7003;64741;41.730;44.788;2024-03-22T04:20:19;1.4;1.4;1
76045;PMS7003;64741;41.730;44.788;2024-03-22T04:25:15;1.2;1;0.6
76045;PMS7003;64741;41.730;44.788;2024-03-22T04:30:21;1.2;1.2;1
76045;PMS7003;64741;41.730;44.788;2024-03-22T04:35:21;1.6;1;1
76045;PMS7003;64741;41.730;44.788;2024-03-22T04:40:15;1.4;1.4;1
76045;PMS7003;64741;41.730;44.788;2024-03-22T04:45:05;1.4;1.2;0.8
76045;PMS7003;64741;41.730;44.788;2024-03-22T04:50:21;1.6;1.2;0.8
76045;PMS7003;64741;41.730;44.788;2024-03-22T04:55:23;2.2;1.4;0.6
76045;PMS7003;64741;41.730;44.788;2024-03-22T05:00:19;1.2;1;0.8
76045;PMS7003;64741;41.730;44.788;2024-03-22T05:05:23;1;1;0.8
76045;PMS7003;64741;41.730;44.788;2024-03-22T05:10:04;1;1;0.8
76045;PMS7003;64741;41.730;44.788;2024-03-22T05:15:19;1.4;1;0.6
76045;PMS7003;64741;41.730;44.788;2024-03-22T05:20:19;1.6;1;0.6
76045;PMS7003;64741;41.730;44.788;2024-03-22T05:25:09;1;1;0.4
76045;PMS7003;64741;41.730;44.788;2024-03-22T05:30:03;1;1;0.4
76045;PMS7003;64741;41.730;44.788;2024-03-22T05:35:15;1.4;1.2;0.6
76045;PMS7003;64741;41.730;44.788;2024-03-22T05:40:19;1.8;1.4;0.6
76045;PMS7003;64741;41.730;44.788;2024-03-22T05:45:23;1.6;1.4;1
76045;PMS7003;64741;41.730;44.788;2024-03-22T05:50:21;1.6;1.4;0.6
76045;PMS7003;64741;41.730;44.788;2024-03-22T05:55:19;1.2;0.6;0.2
76045;PMS7003;64741;41.730;44.788;2024-03-22T06:00:15;1.4;1.2;1
76045;PMS7003;64741;41.730;44.788;2024-03-22T06:05:21;1.8;1.4;0.6
76045;PMS7003;64741;41.730;44.788;2024-03-22T06:10:21;1.8;1;0.8
76045;PMS7003;64741;41.730;44.788;2024-03-22T06:15:15;1.8;1.4;1
76045;PMS7003;64741;41.730;44.788;2024-03-22T06:20:15;1.6;1.2;0.8
76045;PMS7003;64741;41.730;44.788;2024-03-22T06:25:21;1.8;1;0.6
76045;PMS7003;64741;41.730;44.788;2024-03-22T06:30:23;1;1;0.8
76045;PMS7003;64741;41.730;44.788;2024-03-22T06:35:19;1;0.8;0.6
76045;PMS7003;64741;41.730;44.788;2024-03-22T06:40:23;1.2;1;0.8
76045;PMS7003;64741;41.730;44.788;2024-03-22T06:45:07;3;2.6;2.2
76045;PMS7003;64741;41.730;44.788;2024-03-22T06:50:09;8.4;7.8;6
76045;PMS7003;64741;41.730;44.788;2024-03-22T06:55:21;9.6;8.4;6.6
76045;PMS7003;64741;41.730;44.788;2024-03-22T07:00:19;9.4;7.4;5.6
76045;PMS7003;64741;41.730;44.788;2024-03-22T07:05:19;22.4;18;14
76045;PMS7003;64741;41.730;44.788;2024-03-22T07:10:01;22.4;18;14
76045;PMS7003;64741;41.730;44.788;2024-03-22T07:15:22;75;66.6;53.2
76045;PMS7003;64741;41.730;44.788;2024-03-22T07:20:19;79.2;72.4;59.4
76045;PMS7003;64741;41.730;44.788;2024-03-22T07:25:03;79.2;72.4;59.4
76045;PMS7003;64741;41.730;44.788;2024-03-22T07:29:53;80.6;75.6;61.8
76045;PMS7003;64741;41.730;44.788;2024-03-22T07:35:23;79.2;72.2;59.8
76045;PMS7003;64741;41.730;44.788;2024-03-22T07:40:19;73.6;63.8;52.6
76045;PMS7003;64741;41.730;44.788;2024-03-22T07:45:21;70;59.8;49.6
76045;PMS7003;64741;41.730;44.788;2024-03-22T07:50:21;67.4;55.6;45.2
76045;PMS7003;64741;41.730;44.788;2024-03-22T07:55:15;67.8;55.2;43.8
76045;PMS7003;64741;41.730;44.788;2024-03-22T08:00:23;63.4;51;40.2
76045;PMS7003;64741;41.730;44.788;2024-03-22T08:05:23;62;50.8;39.4
76045;PMS7003;64741;41.730;44.788;2024-03-22T08:10:19;59.8;48.8;36.8
76045;PMS7003;64741;41.730;44.788;2024-03-22T08:15:23;56.5;46;33
76045;PMS7003;64741;41.730;44.788;2024-03-22T08:20:23;48.1;39.9;30
76045;PMS7003;64741;41.730;44.788;2024-03-22T08:25:19;32.8;29.4;23.4
76045;PMS7003;64741;41.730;44.788;2024-03-22T08:30:12;22.6;21.6;17.6
76045;PMS7003;64741;41.730;44.788;2024-03-22T08:35:15;21.2;19.8;17
76045;PMS7003;64741;41.730;44.788;2024-03-22T08:40:10;18;17;14.6
76045;PMS7003;64741;41.730;44.788;2024-03-22T08:45:15;16.4;16.2;13.6
76045;PMS7003;64741;41.730;44.788;2024-03-22T08:50:15;14.2;13.6;12
76045;PMS7003;64741;41.730;44.788;2024-03-22T08:55:23;15;12.6;11.2
76045;PMS7003;64741;41.730;44.788;2024-03-22T09:00:06;13.2;13;11.2
76045;PMS7003;64741;41.730;44.788;2024-03-22T09:04:51;13.2;13;11.2
76045;PMS7003;64741;41.730;44.788;2024-03-22T09:10:25;14.6;13.4;12.2
76045;PMS7003;64741;41.730;44.788;2024-03-22T09:15:21;14;13;10.8
76045;PMS7003;64741;41.730;44.788;2024-03-22T09:20:21;12.8;12.4;11
76045;PMS7003;64741;41.730;44.788;2024-03-22T09:25:25;15;13.6;11.4
76045;PMS7003;64741;41.730;44.788;2024-03-22T09:30:15;12.8;12.4;10.2
76045;PMS7003;64741;41.730;44.788;2024-03-22T09:35:23;13.2;12;10.4
76045;PMS7003;64741;41.730;44.788;2024-03-22T09:40:15;12.8;11.6;10
76045;PMS7003;64741;41.730;44.788;2024-03-22T09:45:23;11.8;11.4;9.8
76045;PMS7003;64741;41.730;44.788;2024-03-22T09:50:21;10.4;9.6;7.6
76045;PMS7003;64741;41.730;44.788;2024-03-22T09:55:25;11.3;10.5;9.3
76045;PMS7003;64741;41.730;44.788;2024-03-22T10:00:21;10.4;9.6;8.2
76045;PMS7003;64741;41.730;44.788;2024-03-22T10:05:23;10.8;8.8;7.8
76045;PMS7003;64741;41.730;44.788;2024-03-22T10:10:22;11.2;10;7.8
76045;PMS7003;64741;41.730;44.788;2024-03-22T10:15:23;10.6;9.8;8
76045;PMS7003;64741;41.730;44.788;2024-03-22T10:20:16;10.6;9.4;7.4
76045;PMS7003;64741;41.730;44.788;2024-03-22T10:25:15;10;9.2;8
76045;PMS7003;64741;41.730;44.788;2024-03-22T10:30:24;9.2;8.8;7.4
76045;PMS7003;64741;41.730;44.788;2024-03-22T10:35:15;8.4;8;7.4
76045;PMS7003;64741;41.730;44.788;2024-03-22T10:40:15;6.4;6.2;5.2
76045;PMS7003;64741;41.730;44.788;2024-03-22T10:45:25;7.8;7.2;6.2
76045;PMS7003;64741;41.730;44.788;2024-03-22T10:50:22;6.8;6.6;6
76045;PMS7003;64741;41.730;44.788;2024-03-22T10:55:22;6.6;6.6;5.8
76045;PMS7003;64741;41.730;44.788;2024-03-22T11:00:27;8.2;7.8;6.4
76045;PMS7003;64741;41.730;44.788;2024-03-22T11:05:16;6;5.6;4.8
76045;PMS7003;64741;41.730;44.788;2024-03-22T11:10:25;6.6;6.4;6
76045;PMS7003;64741;41.730;44.788;2024-03-22T11:15:15;6.8;6.6;5.6
76045;PMS7003;64741;41.730;44.788;2024-03-22T11:20:12;7.6;7.4;5.8
76045;PMS7003;64741;41.730;44.788;2024-03-22T11:25:21;6.2;5.8;4.8
76045;PMS7003;64741;41.730;44.788;2024-03-22T11:30:26;7;6.6;5.4
76045;PMS7003;64741;41.730;44.788;2024-03-22T11:35:23;7.4;6.6;5.4
76045;PMS7003;64741;41.730;44.788;2024-03-22T11:40:06;6;5.6;4.8
76045;PMS7003;64741;41.730;44.788;2024-03-22T11:45:22;5.8;5.8;4.6
76045;PMS7003;64741;41.730;44.788;2024-03-22T11:50:23;6;5.4;4.8
76045;PMS7003;64741;41.730;44.788;2024-03-22T11:55:22;5.6;5;4.2
76045;PMS7003;64741;41.730;44.788;2024-03-22T12:00:16;5.6;4.8;4.4
76045;PMS7003;64741;41.730;44.788;2024-03-22T12:05:21;5.6;5.2;4.4
76045;PMS7003;64741;41.730;44.788;2024-03-22T12:10:15;6;5.6;4.4
76045;PMS7003;64741;41.730;44.788;2024-03-22T12:15:22;7.2;6.6;5.2
76045;PMS7003;64741;41.730;44.788;2024-03-22T12:20:25;9.6;7.2;6.2
76045;PMS7003;64741;41.730;44.788;2024-03-22T12:25:26;9.6;8.4;6.8
76045;PMS7003;64741;41.730;44.788;2024-03-22T12:30:22;10;9.2;7.4
76045;PMS7003;64741;41.730;44.788;2024-03-22T12:35:14;10.8;10.8;8.4
76045;PMS7003;64741;41.730;44.788;2024-03-22T12:40:26;12.4;11.2;9.6
76045;PMS7003;64741;41.730;44.788;2024-03-22T12:45:06;16;14.4;11.6
76045;PMS7003;64741;41.730;44.788;2024-03-22T12:50:16;21.8;19.2;15.4
76045;PMS7003;64741;41.730;44.788;2024-03-22T12:55:16;24.2;22.8;17.8
76045;PMS7003;64741;41.730;44.788;2024-03-22T13:00:22;45.2;37.8;28.4
76045;PMS7003;64741;41.730;44.788;2024-03-22T13:05:26;66.8;53.2;41.4
76045;PMS7003;64741;41.730;44.788;2024-03-22T13:10:22;62.8;50;38.6
76045;PMS7003;64741;41.730;44.788;2024-03-22T13:15:26;58.4;47.2;35.2
76045;PMS7003;64741;41.730;44.788;2024-03-22T13:20:22;54.6;44.8;33.6
76045;PMS7003;64741;41.730;44.788;2024-03-22T13:25:22;55.8;45.8;34.4
76045;PMS7003;64741;41.730;44.788;2024-03-22T13:30:24;51.2;41.8;31.6
76045;PMS7003;64741;41.730;44.788;2024-03-22T13:35:22;50.8;41.2;31.2
76045;PMS7003;64741;41.730;44.788;2024-03-22T13:40:22;50.2;41.4;31.2
76045;PMS7003;64741;41.730;44.788;2024-03-22T13:45:14;51;42;31.8
76045;PMS7003;64741;41.730;44.788;2024-03-22T13:50:22;54.2;44.4;32.8
76045;PMS7003;64741;41.730;44.788;2024-03-22T13:55:02;54.2;44.4;32.8
76045;PMS7003;64741;41.730;44.788;2024-03-22T14:00:24;53.6;43.6;32.4
76045;PMS7003;64741;41.730;44.788;2024-03-22T14:05:22;51.4;42.2;32.2
76045;PMS7003;64741;41.730;44.788;2024-03-22T14:10:14;51.4;43.2;32.4
76045;PMS7003;64741;41.730;44.788;2024-03-22T14:15:22;50.2;41.8;31.8
76045;PMS7003;64741;41.730;44.788;2024-03-22T14:20:22;50.4;42;31.4
76045;PMS7003;64741;41.730;44.788;2024-03-22T14:24:50;50.4;42;31.4
76045;PMS7003;64741;41.730;44.788;2024-03-22T14:30:14;48.4;41.4;30.8
76045;PMS7003;64741;41.730;44.788;2024-03-22T14:35:24;48;40.2;30
76045;PMS7003;64741;41.730;44.788;2024-03-22T14:40:24;49.4;41;30.6
76045;PMS7003;64741;41.730;44.788;2024-03-22T14:45:14;49;40.4;30.2
76045;PMS7003;64741;41.730;44.788;2024-03-22T14:50:24;46.8;39.8;29.6
76045;PMS7003;64741;41.730;44.788;2024-03-22T14:55:24;46.4;39;29.6
76045;PMS7003;64741;41.730;44.788;2024-03-22T15:00:02;46.4;39;29.6
76045;PMS7003;64741;41.730;44.788;2024-03-22T15:05:20;47.5;38.8;29.3
76045;PMS7003;64741;41.730;44.788;2024-03-22T15:10:20;43.4;37;28.2
76045;PMS7003;64741;41.730;44.788;2024-03-22T15:15:10;43.2;37.2;28.2
76045;PMS7003;64741;41.730;44.788;2024-03-22T15:20:14;43.6;37.4;28.2
76045;PMS7003;64741;41.730;44.788;2024-03-22T15:25:22;41;35.8;27.4
76045;PMS7003;64741;41.730;44.788;2024-03-22T15:30:22;41.4;35.8;27.6
76045;PMS7003;64741;41.730;44.788;2024-03-22T15:35:24;42;34.6;26.6
76045;PMS7003;64741;41.730;44.788;2024-03-22T15:40:22;38.2;34.4;26.4
76045;PMS7003;64741;41.730;44.788;2024-03-22T15:45:04;38.2;34.4;26.4
76045;PMS7003;64741;41.730;44.788;2024-03-22T15:50:12;39;33.6;26
76045;PMS7003;64741;41.730;44.788;2024-03-22T15:55:24;38;33.2;26.2
76045;PMS7003;64741;41.730;44.788;2024-03-22T16:00:22;36.4;33;25.8
76045;PMS7003;64741;41.730;44.788;2024-03-22T16:05:14;35;32;25
76045;PMS7003;64741;41.730;44.788;2024-03-22T16:10:06;36.8;32.6;25.6
76045;PMS7003;64741;41.730;44.788;2024-03-22T16:15:24;36.2;32;24.2
76045;PMS7003;64741;41.730;44.788;2024-03-22T16:20:22;34;31.4;23.8
76045;PMS7003;64741;41.730;44.788;2024-03-22T16:25:24;32.8;31;23.8
76045;PMS7003;64741;41.730;44.788;2024-03-22T16:30:06;32.6;30.8;23.4
76045;PMS7003;64741;41.730;44.788;2024-03-22T16:35:22;31.6;29.2;23.2
76045;PMS7003;64741;41.730;44.788;2024-03-22T16:40:26;32.2;29.8;22.8
76045;PMS7003;64741;41.730;44.788;2024-03-22T16:45:16;30.2;29;22.2
76045;PMS7003;64741;41.730;44.788;2024-03-22T16:50:24;29.4;28.2;22.4
76045;PMS7003;64741;41.730;44.788;2024-03-22T16:55:16;27;26;21
76045;PMS7003;64741;41.730;44.788;2024-03-22T17:00:14;27.6;25.6;20.4
76045;PMS7003;64741;41.730;44.788;2024-03-22T17:05:23;28.6;26.8;21.8
76045;PMS7003;64741;41.730;44.788;2024-03-22T17:10:14;28.2;26.8;21.4
76045;PMS7003;64741;41.730;44.788;2024-03-22T17:15:14;27.8;27.4;21
76045;PMS7003;64741;41.730;44.788;2024-03-22T17:20:24;25;23.4;19.6
76045;PMS7003;64741;41.730;44.788;2024-03-22T17:25:12;24.2;22.8;18.6
76045;PMS7003;64741;41.730;44.788;2024-03-22T17:30:22;19.4;19.2;16.6
76045;PMS7003;64741;41.730;44.788;2024-03-22T17:35:22;22.8;21.4;18
76045;PMS7003;64741;41.730;44.788;2024-03-22T17:40:14;22.4;21.8;18.4
76045;PMS7003;64741;41.730;44.788;2024-03-22T17:45:22;19.6;19.4;16.6
76045;PMS7003;64741;41.730;44.788;2024-03-22T17:50:14;21.6;20.2;17.2
76045;PMS7003;64741;41.730;44.788;2024-03-22T17:55:14;19.8;19.6;16.2
76045;PMS7003;64741;41.730;44.788;2024-03-22T18:00:22;19.8;18.8;15.8
76045;PMS7003;64741;41.730;44.788;2024-03-22T18:05:26;18.2;17.8;15.6
76045;PMS7003;64741;41.730;44.788;2024-03-22T18:10:18;19.2;18.6;16
76045;PMS7003;64741;41.730;44.788;2024-03-22T18:15:18;19.6;18.2;15.4
76045;PMS7003;64741;41.730;44.788;2024-03-22T18:20:10;18.8;17.4;15
76045;PMS7003;64741;41.730;44.788;2024-03-22T18:25:24;17.2;16.4;14.2
76045;PMS7003;64741;41.730;44.788;2024-03-22T18:30:24;17.8;16;14
76045;PMS7003;64741;41.730;44.788;2024-03-22T18:35:17;16.2;15.4;13
76045;PMS7003;64741;41.730;44.788;2024-03-22T18:40:24;15.8;15;13
76045;PMS7003;64741;41.730;44.788;2024-03-22T18:45:17;15.6;15;13.2
76045;PMS7003;64741;41.730;44.788;2024-03-22T18:50:22;13.8;13.6;11.8
76045;PMS7003;64741;41.730;44.788;2024-03-22T18:55:26;14.8;13.8;12.2
76045;PMS7003;64741;41.730;44.788;2024-03-22T19:00:26;13.8;12.8;11.4
76045;PMS7003;64741;41.730;44.788;2024-03-22T19:05:20;13.2;13;11.4
76045;PMS7003;64741;41.730;44.788;2024-03-22T19:10:16;14;12.4;10.6
76045;PMS7003;64741;41.730;44.788;2024-03-22T19:15:26;14.2;13;10.8
76045;PMS7003;64741;41.730;44.788;2024-03-22T19:20:24;12.4;12;10.2
76045;PMS7003;64741;41.730;44.788;2024-03-22T19:25:16;12.6;12.4;10.4
76045;PMS7003;64741;41.730;44.788;2024-03-22T19:30:16;13.8;12.2;10
76045;PMS7003;64741;41.730;44.788;2024-03-22T19:35:24;10.2;9.8;8.8
76045;PMS7003;64741;41.730;44.788;2024-03-22T19:40:26;11;10.6;9.2
76045;PMS7003;64741;41.730;44.788;2024-03-22T19:45:24;11.6;10.6;9.4
76045;PMS7003;64741;41.730;44.788;2024-03-22T19:50:24;11.2;10;8.4
76045;PMS7003;64741;41.730;44.788;2024-03-22T19:55:22;9.2;9.2;8.4
76045;PMS7003;64741;41.730;44.788;2024-03-22T20:00:24;9.2;9.2;8.2
76045;PMS7003;64741;41.730;44.788;2024-03-22T20:05:24;9.2;8.8;7.4
76045;PMS7003;64741;41.730;44.788;2024-03-22T20:10:16;9.4;8.6;7.2
76045;PMS7003;64741;41.730;44.788;2024-03-22T20:15:24;9.3;8.8;7
76045;PMS7003;64741;41.730;44.788;2024-03-22T20:20:02;9.3;8.8;7
76045;PMS7003;64741;41.730;44.788;2024-03-22T20:24:50;8.6;7.8;6.6
76045;PMS7003;64741;41.730;44.788;2024-03-22T20:30:26;7.2;7;5.4
